sensor_id;sensor_type;location;lat;lon;timestamp;P1;durP1;ratioP1;P2;durP2;ratioP2
20828;SDS011;10575;50.124;8.582;2023-02-28T00:00:08;14.05;;;6.32;;
20828;SDS011;10575;50.124;8.582;2023-02-28T00:02:36;11.38;;;7.18;;
20828;SDS011;10575;50.124;8.582;2023-02-28T00:05:02;9.88;;;4.90;;
20828;SDS011;10575;50.124;8.582;2023-02-28T00:07:29;8.63;;;5.15;;
20828;SDS011;10575;50.124;8.582;2023-02-28T00:09:55;8.70;;;4.55;;
20828;SDS011;10575;50.124;8.582;2023-02-28T00:12:21;10.32;;;4.82;;
20828;SDS011;10575;50.124;8.582;2023-02-28T00:14:46;8.98;;;5.43;;
20828;SDS011;10575;50.124;8.582;2023-02-28T00:17:12;8.35;;;4.82;;
20828;SDS011;10575;50.124;8.582;2023-02-28T00:19:37;9.88;;;4.90;;
20828;SDS011;10575;50.124;8.582;2023-02-28T00:22:03;8.07;;;4.75;;
20828;SDS011;10575;50.124;8.582;2023-02-28T00:24:28;7.82;;;4.70;;
20828;SDS011;10575;50.124;8.582;2023-02-28T00:26:54;6.97;;;4.85;;
20828;SDS011;10575;50.124;8.582;2023-02-28T00:29:19;8.13;;;4.90;;
20828;SDS011;10575;50.124;8.582;2023-02-28T00:31:45;7.13;;;4.82;;
20828;SDS011;10575;50.124;8.582;2023-02-28T00:34:10;9.10;;;5.55;;
20828;SDS011;10575;50.124;8.582;2023-02-28T00:36:36;10.07;;;5.00;;
20828;SDS011;10575;50.124;8.582;2023-02-28T00:39:01;7.43;;;4.70;;
20828;SDS011;10575;50.124;8.582;2023-02-28T00:41:27;7.28;;;4.65;;
20828;SDS011;10575;50.124;8.582;2023-02-28T00:43:52;8.80;;;5.35;;
20828;SDS011;10575;50.124;8.582;2023-02-28T00:46:18;9.25;;;5.03;;
20828;SDS011;10575;50.124;8.582;2023-02-28T00:48:43;8.35;;;5.00;;
20828;SDS011;10575;50.124;8.582;2023-02-28T00:51:09;8.43;;;4.95;;
20828;SDS011;10575;50.124;8.582;2023-02-28T00:53:34;6.95;;;4.70;;
20828;SDS011;10575;50.124;8.582;2023-02-28T00:56:00;10.70;;;5.65;;
20828;SDS011;10575;50.124;8.582;2023-02-28T00:58:26;11.57;;;5.00;;
20828;SDS011;10575;50.124;8.582;2023-02-28T01:00:51;8.85;;;4.85;;
20828;SDS011;10575;50.124;8.582;2023-02-28T01:03:18;7.47;;;4.72;;
20828;SDS011;10575;50.124;8.582;2023-02-28T01:05:44;10.18;;;5.13;;
20828;SDS011;10575;50.124;8.582;2023-02-28T01:08:10;11.70;;;6.10;;
20828;SDS011;10575;50.124;8.582;2023-02-28T01:10:36;9.75;;;5.60;;
20828;SDS011;10575;50.124;8.582;2023-02-28T01:13:03;11.40;;;5.65;;
20828;SDS011;10575;50.124;8.582;2023-02-28T01:15:28;8.98;;;5.65;;
20828;SDS011;10575;50.124;8.582;2023-02-28T01:17:54;12.68;;;5.95;;
20828;SDS011;10575;50.124;8.582;2023-02-28T01:20:19;10.68;;;6.00;;
20828;SDS011;10575;50.124;8.582;2023-02-28T01:22:45;11.80;;;6.18;;
20828;SDS011;10575;50.124;8.582;2023-02-28T01:25:11;11.18;;;5.68;;
20828;SDS011;10575;50.124;8.582;2023-02-28T01:27:37;9.45;;;5.85;;
20828;SDS011;10575;50.124;8.582;2023-02-28T01:30:04;10.43;;;5.55;;
20828;SDS011;10575;50.124;8.582;2023-02-28T01:32:31;11.07;;;5.68;;
20828;SDS011;10575;50.124;8.582;2023-02-28T01:34:56;11.27;;;6.32;;
20828;SDS011;10575;50.124;8.582;2023-02-28T01:37:22;10.77;;;6.30;;
20828;SDS011;10575;50.124;8.582;2023-02-28T01:39:47;10.05;;;5.72;;
20828;SDS011;10575;50.124;8.582;2023-02-28T01:42:13;11.40;;;6.15;;
20828;SDS011;10575;50.124;8.582;2023-02-28T01:47:27;11.45;;;6.05;;
20828;SDS011;10575;50.124;8.582;2023-02-28T01:49:56;14.57;;;6.35;;
20828;SDS011;10575;50.124;8.582;2023-02-28T01:52:23;9.55;;;5.97;;
20828;SDS011;10575;50.124;8.582;2023-02-28T01:54:51;10.85;;;6.35;;
20828;SDS011;10575;50.124;8.582;2023-02-28T01:57:19;11.40;;;6.20;;
20828;SDS011;10575;50.124;8.582;2023-02-28T01:59:53;12.07;;;5.90;;
20828;SDS011;10575;50.124;8.582;2023-02-28T02:02:26;10.82;;;6.57;;
20828;SDS011;10575;50.124;8.582;2023-02-28T02:04:59;11.90;;;6.68;;
20828;SDS011;10575;50.124;8.582;2023-02-28T02:07:32;13.85;;;6.63;;
20828;SDS011;10575;50.124;8.582;2023-02-28T02:10:16;13.50;;;6.82;;
20828;SDS011;10575;50.124;8.582;2023-02-28T02:18:22;12.05;;;6.55;;
20828;SDS011;10575;50.124;8.582;2023-02-28T02:23:58;13.23;;;6.53;;
20828;SDS011;10575;50.124;8.582;2023-02-28T02:34:57;11.15;;;5.95;;
20828;SDS011;10575;50.124;8.582;2023-02-28T02:42:41;10.73;;;5.78;;
20828;SDS011;10575;50.124;8.582;2023-02-28T02:45:25;10.95;;;5.93;;
20828;SDS011;10575;50.124;8.582;2023-02-28T02:48:01;12.98;;;5.85;;
20828;SDS011;10575;50.124;8.582;2023-02-28T02:50:31;11.13;;;6.65;;
20828;SDS011;10575;50.124;8.582;2023-02-28T02:53:02;12.75;;;6.18;;
20828;SDS011;10575;50.124;8.582;2023-02-28T02:55:31;13.57;;;6.47;;
20828;SDS011;10575;50.124;8.582;2023-02-28T02:58:01;11.77;;;6.40;;
20828;SDS011;10575;50.124;8.582;2023-02-28T03:00:31;9.88;;;5.60;;
20828;SDS011;10575;50.124;8.582;2023-02-28T03:03:11;11.18;;;5.70;;
20828;SDS011;10575;50.124;8.582;2023-02-28T03:05:41;13.80;;;6.43;;
20828;SDS011;10575;50.124;8.582;2023-02-28T03:08:10;9.23;;;5.45;;
20828;SDS011;10575;50.124;8.582;2023-02-28T03:10:40;10.93;;;5.97;;
20828;SDS011;10575;50.124;8.582;2023-02-28T03:13:34;11.18;;;6.00;;
20828;SDS011;10575;50.124;8.582;2023-02-28T03:21:27;14.30;;;6.45;;
20828;SDS011;10575;50.124;8.582;2023-02-28T03:25:01;10.07;;;6.43;;
20828;SDS011;10575;50.124;8.582;2023-02-28T03:27:11;11.60;;;6.45;;
20828;SDS011;10575;50.124;8.582;2023-02-28T03:30:13;10.40;;;6.53;;
20828;SDS011;10575;50.124;8.582;2023-02-28T03:32:57;10.38;;;6.13;;
20828;SDS011;10575;50.124;8.582;2023-02-28T03:35:31;10.48;;;5.97;;
20828;SDS011;10575;50.124;8.582;2023-02-28T03:38:16;12.18;;;6.25;;
20828;SDS011;10575;50.124;8.582;2023-02-28T03:40:47;13.23;;;6.43;;
20828;SDS011;10575;50.124;8.582;2023-02-28T03:43:18;16.48;;;6.30;;
20828;SDS011;10575;50.124;8.582;2023-02-28T03:45:47;10.68;;;6.25;;
20828;SDS011;10575;50.124;8.582;2023-02-28T03:48:18;12.63;;;6.38;;
20828;SDS011;10575;50.124;8.582;2023-02-28T03:50:53;12.50;;;6.30;;
20828;SDS011;10575;50.124;8.582;2023-02-28T03:53:25;13.60;;;7.50;;
20828;SDS011;10575;50.124;8.582;2023-02-28T03:56:13;11.30;;;6.32;;
20828;SDS011;10575;50.124;8.582;2023-02-28T04:01:23;15.25;;;7.20;;
20828;SDS011;10575;50.124;8.582;2023-02-28T04:03:56;15.05;;;6.75;;
20828;SDS011;10575;50.124;8.582;2023-02-28T04:06:22;14.02;;;7.10;;
20828;SDS011;10575;50.124;8.582;2023-02-28T04:08:48;12.82;;;7.68;;
20828;SDS011;10575;50.124;8.582;2023-02-28T04:13:39;14.18;;;6.68;;
20828;SDS011;10575;50.124;8.582;2023-02-28T04:16:08;15.50;;;7.38;;
20828;SDS011;10575;50.124;8.582;2023-02-28T04:18:37;11.57;;;6.85;;
20828;SDS011;10575;50.124;8.582;2023-02-28T04:21:03;11.68;;;6.72;;
20828;SDS011;10575;50.124;8.582;2023-02-28T04:23:30;14.63;;;8.25;;
20828;SDS011;10575;50.124;8.582;2023-02-28T04:25:56;10.85;;;6.32;;
20828;SDS011;10575;50.124;8.582;2023-02-28T04:28:21;12.80;;;6.60;;
20828;SDS011;10575;50.124;8.582;2023-02-28T04:30:47;11.98;;;6.65;;
20828;SDS011;10575;50.124;8.582;2023-02-28T04:33:12;17.48;;;7.13;;
20828;SDS011;10575;50.124;8.582;2023-02-28T04:35:38;11.43;;;6.55;;
20828;SDS011;10575;50.124;8.582;2023-02-28T04:38:03;12.65;;;6.95;;
20828;SDS011;10575;50.124;8.582;2023-02-28T04:40:29;12.88;;;6.32;;
20828;SDS011;10575;50.124;8.582;2023-02-28T04:42:54;11.02;;;6.03;;
20828;SDS011;10575;50.124;8.582;2023-02-28T04:45:20;11.73;;;6.35;;
20828;SDS011;10575;50.124;8.582;2023-02-28T04:47:45;13.55;;;7.32;;
20828;SDS011;10575;50.124;8.582;2023-02-28T04:50:11;12.07;;;6.47;;
20828;SDS011;10575;50.124;8.582;2023-02-28T04:52:36;10.93;;;5.75;;
20828;SDS011;10575;50.124;8.582;2023-02-28T04:55:02;9.23;;;5.65;;
20828;SDS011;10575;50.124;8.582;2023-02-28T04:57:27;10.40;;;5.40;;
20828;SDS011;10575;50.124;8.582;2023-02-28T04:59:53;9.55;;;5.70;;
20828;SDS011;10575;50.124;8.582;2023-02-28T05:02:18;13.25;;;6.38;;
20828;SDS011;10575;50.124;8.582;2023-02-28T05:04:45;11.80;;;6.07;;
20828;SDS011;10575;50.124;8.582;2023-02-28T05:07:11;11.15;;;5.90;;
20828;SDS011;10575;50.124;8.582;2023-02-28T05:09:36;10.15;;;5.75;;
20828;SDS011;10575;50.124;8.582;2023-02-28T05:12:02;11.02;;;5.43;;
20828;SDS011;10575;50.124;8.582;2023-02-28T05:14:28;7.88;;;5.13;;
20828;SDS011;10575;50.124;8.582;2023-02-28T05:16:53;8.75;;;5.35;;
20828;SDS011;10575;50.124;8.582;2023-02-28T05:19:19;11.68;;;5.43;;
20828;SDS011;10575;50.124;8.582;2023-02-28T05:21:50;8.52;;;5.40;;
20828;SDS011;10575;50.124;8.582;2023-02-28T05:24:17;8.43;;;4.78;;
20828;SDS011;10575;50.124;8.582;2023-02-28T05:26:47;11.55;;;5.10;;
20828;SDS011;10575;50.124;8.582;2023-02-28T05:29:14;9.98;;;5.38;;
20828;SDS011;10575;50.124;8.582;2023-02-28T05:31:40;11.52;;;5.22;;
20828;SDS011;10575;50.124;8.582;2023-02-28T05:34:05;10.55;;;5.35;;
20828;SDS011;10575;50.124;8.582;2023-02-28T05:36:31;13.73;;;5.55;;
20828;SDS011;10575;50.124;8.582;2023-02-28T05:38:57;11.00;;;5.45;;
20828;SDS011;10575;50.124;8.582;2023-02-28T05:41:22;15.15;;;5.35;;
20828;SDS011;10575;50.124;8.582;2023-02-28T05:43:48;9.75;;;5.30;;
20828;SDS011;10575;50.124;8.582;2023-02-28T05:46:14;9.27;;;4.97;;
20828;SDS011;10575;50.124;8.582;2023-02-28T05:48:41;12.43;;;4.78;;
20828;SDS011;10575;50.124;8.582;2023-02-28T05:51:08;8.88;;;5.05;;
20828;SDS011;10575;50.124;8.582;2023-02-28T05:53:34;13.85;;;5.25;;
20828;SDS011;10575;50.124;8.582;2023-02-28T05:56:00;11.25;;;4.90;;
20828;SDS011;10575;50.124;8.582;2023-02-28T05:58:26;9.32;;;5.00;;
20828;SDS011;10575;50.124;8.582;2023-02-28T06:00:55;6.80;;;4.25;;
20828;SDS011;10575;50.124;8.582;2023-02-28T06:03:24;8.68;;;4.53;;
20828;SDS011;10575;50.124;8.582;2023-02-28T06:05:50;9.50;;;4.60;;
20828;SDS011;10575;50.124;8.582;2023-02-28T06:08:15;7.82;;;4.35;;
20828;SDS011;10575;50.124;8.582;2023-02-28T06:10:41;11.23;;;4.90;;
20828;SDS011;10575;50.124;8.582;2023-02-28T06:13:07;11.02;;;4.68;;
20828;SDS011;10575;50.124;8.582;2023-02-28T06:15:32;8.98;;;5.43;;
20828;SDS011;10575;50.124;8.582;2023-02-28T06:17:58;9.82;;;4.68;;
20828;SDS011;10575;50.124;8.582;2023-02-28T06:20:25;9.10;;;4.72;;
20828;SDS011;10575;50.124;8.582;2023-02-28T06:22:55;8.68;;;4.68;;
20828;SDS011;10575;50.124;8.582;2023-02-28T06:25:23;8.98;;;4.68;;
20828;SDS011;10575;50.124;8.582;2023-02-28T06:27:49;9.75;;;4.88;;
20828;SDS011;10575;50.124;8.582;2023-02-28T06:30:14;9.10;;;4.97;;
20828;SDS011;10575;50.124;8.582;2023-02-28T06:32:40;9.95;;;4.70;;
20828;SDS011;10575;50.124;8.582;2023-02-28T06:35:06;8.55;;;4.57;;
20828;SDS011;10575;50.124;8.582;2023-02-28T06:37:32;8.02;;;4.75;;
20828;SDS011;10575;50.124;8.582;2023-02-28T06:39:57;11.13;;;5.38;;
20828;SDS011;10575;50.124;8.582;2023-02-28T06:42:23;9.35;;;5.32;;
20828;SDS011;10575;50.124;8.582;2023-02-28T06:44:54;11.48;;;5.25;;
20828;SDS011;10575;50.124;8.582;2023-02-28T06:47:20;9.40;;;5.30;;
20828;SDS011;10575;50.124;8.582;2023-02-28T06:49:46;10.27;;;5.43;;
20828;SDS011;10575;50.124;8.582;2023-02-28T06:52:11;12.48;;;5.55;;
20828;SDS011;10575;50.124;8.582;2023-02-28T06:54:37;10.63;;;5.50;;
20828;SDS011;10575;50.124;8.582;2023-02-28T06:57:03;12.57;;;5.72;;
20828;SDS011;10575;50.124;8.582;2023-02-28T06:59:28;12.40;;;5.88;;
20828;SDS011;10575;50.124;8.582;2023-02-28T07:01:54;10.48;;;5.97;;
20828;SDS011;10575;50.124;8.582;2023-02-28T07:04:20;11.85;;;5.30;;
20828;SDS011;10575;50.124;8.582;2023-02-28T07:06:46;8.80;;;4.75;;
20828;SDS011;10575;50.124;8.582;2023-02-28T07:09:11;12.30;;;5.25;;
20828;SDS011;10575;50.124;8.582;2023-02-28T07:11:38;10.30;;;4.50;;
20828;SDS011;10575;50.124;8.582;2023-02-28T07:14:04;10.80;;;5.82;;
20828;SDS011;10575;50.124;8.582;2023-02-28T07:16:30;7.85;;;4.93;;
20828;SDS011;10575;50.124;8.582;2023-02-28T07:18:55;11.90;;;4.95;;
20828;SDS011;10575;50.124;8.582;2023-02-28T07:21:21;17.27;;;6.07;;
20828;SDS011;10575;50.124;8.582;2023-02-28T07:23:47;8.93;;;4.93;;
20828;SDS011;10575;50.124;8.582;2023-02-28T07:26:14;11.07;;;5.50;;
20828;SDS011;10575;50.124;8.582;2023-02-28T07:28:42;13.50;;;6.25;;
20828;SDS011;10575;50.124;8.582;2023-02-28T07:31:09;9.20;;;5.47;;
20828;SDS011;10575;50.124;8.582;2023-02-28T07:33:35;14.13;;;5.65;;
20828;SDS011;10575;50.124;8.582;2023-02-28T07:36:04;10.70;;;5.35;;
20828;SDS011;10575;50.124;8.582;2023-02-28T07:38:36;11.45;;;5.85;;
20828;SDS011;10575;50.124;8.582;2023-02-28T07:41:02;11.85;;;5.72;;
20828;SDS011;10575;50.124;8.582;2023-02-28T07:43:33;11.30;;;6.32;;
20828;SDS011;10575;50.124;8.582;2023-02-28T07:46:03;11.27;;;5.80;;
20828;SDS011;10575;50.124;8.582;2023-02-28T07:48:30;10.27;;;5.90;;
20828;SDS011;10575;50.124;8.582;2023-02-28T07:50:56;11.13;;;5.88;;
20828;SDS011;10575;50.124;8.582;2023-02-28T07:53:22;13.00;;;6.40;;
20828;SDS011;10575;50.124;8.582;2023-02-28T07:55:48;9.98;;;5.95;;
20828;SDS011;10575;50.124;8.582;2023-02-28T07:58:13;9.23;;;5.80;;
20828;SDS011;10575;50.124;8.582;2023-02-28T08:00:39;11.20;;;5.47;;
20828;SDS011;10575;50.124;8.582;2023-02-28T08:03:04;12.52;;;5.82;;
20828;SDS011;10575;50.124;8.582;2023-02-28T08:05:30;9.85;;;6.40;;
20828;SDS011;10575;50.124;8.582;2023-02-28T08:07:55;12.25;;;6.18;;
20828;SDS011;10575;50.124;8.582;2023-02-28T08:10:21;10.65;;;5.90;;
20828;SDS011;10575;50.124;8.582;2023-02-28T08:12:47;9.30;;;5.10;;
20828;SDS011;10575;50.124;8.582;2023-02-28T08:15:12;13.63;;;5.50;;
20828;SDS011;10575;50.124;8.582;2023-02-28T08:17:38;12.45;;;5.53;;
20828;SDS011;10575;50.124;8.582;2023-02-28T08:20:04;10.32;;;5.82;;
20828;SDS011;10575;50.124;8.582;2023-02-28T08:22:30;7.80;;;5.13;;
20828;SDS011;10575;50.124;8.582;2023-02-28T08:24:55;8.05;;;5.28;;
20828;SDS011;10575;50.124;8.582;2023-02-28T08:27:21;9.10;;;6.05;;
20828;SDS011;10575;50.124;8.582;2023-02-28T08:29:46;9.80;;;5.72;;
20828;SDS011;10575;50.124;8.582;2023-02-28T08:32:12;11.88;;;6.35;;
20828;SDS011;10575;50.124;8.582;2023-02-28T08:34:38;9.73;;;5.55;;
20828;SDS011;10575;50.124;8.582;2023-02-28T08:37:05;9.68;;;5.20;;
20828;SDS011;10575;50.124;8.582;2023-02-28T08:39:33;9.05;;;5.50;;
20828;SDS011;10575;50.124;8.582;2023-02-28T08:41:59;8.93;;;5.22;;
20828;SDS011;10575;50.124;8.582;2023-02-28T08:44:25;11.73;;;5.43;;
20828;SDS011;10575;50.124;8.582;2023-02-28T08:46:52;7.47;;;4.80;;
20828;SDS011;10575;50.124;8.582;2023-02-28T08:49:17;9.60;;;4.75;;
20828;SDS011;10575;50.124;8.582;2023-02-28T08:51:43;8.88;;;4.70;;
20828;SDS011;10575;50.124;8.582;2023-02-28T08:54:09;7.43;;;4.57;;
20828;SDS011;10575;50.124;8.582;2023-02-28T08:56:37;6.40;;;4.30;;
20828;SDS011;10575;50.124;8.582;2023-02-28T08:59:03;7.78;;;4.63;;
20828;SDS011;10575;50.124;8.582;2023-02-28T09:01:29;6.95;;;4.60;;
20828;SDS011;10575;50.124;8.582;2023-02-28T09:03:56;7.40;;;4.97;;
20828;SDS011;10575;50.124;8.582;2023-02-28T09:06:23;6.57;;;4.60;;
20828;SDS011;10575;50.124;8.582;2023-02-28T09:08:50;7.32;;;5.00;;
20828;SDS011;10575;50.124;8.582;2023-02-28T09:11:16;6.70;;;4.15;;
20828;SDS011;10575;50.124;8.582;2023-02-28T09:13:44;5.80;;;4.50;;
20828;SDS011;10575;50.124;8.582;2023-02-28T09:16:11;6.53;;;4.63;;
20828;SDS011;10575;50.124;8.582;2023-02-28T09:18:39;8.25;;;4.53;;
20828;SDS011;10575;50.124;8.582;2023-02-28T09:21:05;5.72;;;4.55;;
20828;SDS011;10575;50.124;8.582;2023-02-28T09:23:33;5.03;;;3.97;;
20828;SDS011;10575;50.124;8.582;2023-02-28T09:25:59;6.18;;;4.28;;
20828;SDS011;10575;50.124;8.582;2023-02-28T09:28:24;6.30;;;3.92;;
20828;SDS011;10575;50.124;8.582;2023-02-28T09:30:51;6.93;;;4.22;;
20828;SDS011;10575;50.124;8.582;2023-02-28T09:33:18;7.53;;;4.85;;
20828;SDS011;10575;50.124;8.582;2023-02-28T09:35:48;6.50;;;4.20;;
20828;SDS011;10575;50.124;8.582;2023-02-28T09:38:15;6.85;;;4.05;;
20828;SDS011;10575;50.124;8.582;2023-02-28T09:40:51;7.38;;;4.43;;
20828;SDS011;10575;50.124;8.582;2023-02-28T09:43:21;7.43;;;4.55;;
20828;SDS011;10575;50.124;8.582;2023-02-28T09:45:52;5.90;;;4.10;;
20828;SDS011;10575;50.124;8.582;2023-02-28T09:48:41;6.90;;;4.72;;
20828;SDS011;10575;50.124;8.582;2023-02-28T09:53:58;7.60;;;5.07;;
20828;SDS011;10575;50.124;8.582;2023-02-28T09:56:29;10.70;;;5.43;;
20828;SDS011;10575;50.124;8.582;2023-02-28T10:04:33;8.90;;;4.80;;
20828;SDS011;10575;50.124;8.582;2023-02-28T10:07:00;10.05;;;5.25;;
20828;SDS011;10575;50.124;8.582;2023-02-28T10:09:42;9.32;;;4.75;;
20828;SDS011;10575;50.124;8.582;2023-02-28T10:12:11;9.98;;;5.72;;
20828;SDS011;10575;50.124;8.582;2023-02-28T10:14:39;13.05;;;5.15;;
20828;SDS011;10575;50.124;8.582;2023-02-28T10:17:12;10.40;;;4.80;;
20828;SDS011;10575;50.124;8.582;2023-02-28T10:19:43;9.93;;;5.18;;
20828;SDS011;10575;50.124;8.582;2023-02-28T10:22:37;7.70;;;5.10;;
20828;SDS011;10575;50.124;8.582;2023-02-28T10:25:17;10.27;;;5.43;;
20828;SDS011;10575;50.124;8.582;2023-02-28T10:27:48;9.88;;;5.90;;
20828;SDS011;10575;50.124;8.582;2023-02-28T10:30:15;9.52;;;5.45;;
20828;SDS011;10575;50.124;8.582;2023-02-28T10:32:42;10.18;;;5.90;;
20828;SDS011;10575;50.124;8.582;2023-02-28T10:37:59;12.93;;;5.53;;
20828;SDS011;10575;50.124;8.582;2023-02-28T10:40:34;11.30;;;6.15;;
20828;SDS011;10575;50.124;8.582;2023-02-28T10:43:02;9.15;;;5.78;;
20828;SDS011;10575;50.124;8.582;2023-02-28T10:45:52;14.23;;;6.18;;
20828;SDS011;10575;50.124;8.582;2023-02-28T10:48:34;11.95;;;5.50;;
20828;SDS011;10575;50.124;8.582;2023-02-28T10:51:02;9.88;;;5.80;;
20828;SDS011;10575;50.124;8.582;2023-02-28T10:53:31;10.60;;;5.55;;
20828;SDS011;10575;50.124;8.582;2023-02-28T11:01:34;9.18;;;5.07;;
20828;SDS011;10575;50.124;8.582;2023-02-28T11:04:03;8.80;;;5.05;;
20828;SDS011;10575;50.124;8.582;2023-02-28T11:06:41;10.18;;;5.28;;
20828;SDS011;10575;50.124;8.582;2023-02-28T11:09:27;12.02;;;5.03;;
20828;SDS011;10575;50.124;8.582;2023-02-28T11:11:56;10.85;;;5.55;;
20828;SDS011;10575;50.124;8.582;2023-02-28T11:14:26;10.88;;;5.78;;
20828;SDS011;10575;50.124;8.582;2023-02-28T11:16:54;8.75;;;5.00;;
20828;SDS011;10575;50.124;8.582;2023-02-28T11:19:28;9.75;;;5.65;;
20828;SDS011;10575;50.124;8.582;2023-02-28T11:22:01;10.07;;;5.93;;
20828;SDS011;10575;50.124;8.582;2023-02-28T11:24:30;9.02;;;5.63;;
20828;SDS011;10575;50.124;8.582;2023-02-28T11:27:00;8.85;;;4.80;;
20828;SDS011;10575;50.124;8.582;2023-02-28T11:29:27;8.23;;;5.03;;
20828;SDS011;10575;50.124;8.582;2023-02-28T11:34:38;12.80;;;6.25;;
20828;SDS011;10575;50.124;8.582;2023-02-28T11:37:05;12.43;;;5.93;;
20828;SDS011;10575;50.124;8.582;2023-02-28T11:39:36;9.23;;;5.57;;
20828;SDS011;10575;50.124;8.582;2023-02-28T11:50:47;10.73;;;5.80;;
20828;SDS011;10575;50.124;8.582;2023-02-28T12:01:53;11.15;;;5.88;;
20828;SDS011;10575;50.124;8.582;2023-02-28T12:07:17;10.52;;;5.70;;
20828;SDS011;10575;50.124;8.582;2023-02-28T12:12:50;10.80;;;6.63;;
20828;SDS011;10575;50.124;8.582;2023-02-28T12:27:14;11.90;;;6.30;;
20828;SDS011;10575;50.124;8.582;2023-02-28T12:29:52;13.02;;;6.85;;
20828;SDS011;10575;50.124;8.582;2023-02-28T12:34:58;10.90;;;6.53;;
20828;SDS011;10575;50.124;8.582;2023-02-28T12:37:40;13.88;;;6.72;;
20828;SDS011;10575;50.124;8.582;2023-02-28T12:40:12;11.20;;;6.68;;
20828;SDS011;10575;50.124;8.582;2023-02-28T12:42:42;10.27;;;6.60;;
20828;SDS011;10575;50.124;8.582;2023-02-28T12:45:24;15.88;;;6.88;;
20828;SDS011;10575;50.124;8.582;2023-02-28T12:47:58;12.25;;;6.53;;
20828;SDS011;10575;50.124;8.582;2023-02-28T12:50:27;12.48;;;6.65;;
20828;SDS011;10575;50.124;8.582;2023-02-28T12:53:43;11.73;;;6.82;;
20828;SDS011;10575;50.124;8.582;2023-02-28T13:04:32;13.07;;;6.70;;
20828;SDS011;10575;50.124;8.582;2023-02-28T13:10:06;12.63;;;6.50;;
20828;SDS011;10575;50.124;8.582;2023-02-28T13:12:32;10.25;;;6.25;;
20828;SDS011;10575;50.124;8.582;2023-02-28T13:15:16;14.95;;;6.70;;
20828;SDS011;10575;50.124;8.582;2023-02-28T13:17:54;13.73;;;6.60;;
20828;SDS011;10575;50.124;8.582;2023-02-28T13:20:27;12.98;;;6.90;;
20828;SDS011;10575;50.124;8.582;2023-02-28T13:22:59;13.35;;;6.90;;
20828;SDS011;10575;50.124;8.582;2023-02-28T13:28:11;13.75;;;6.85;;
20828;SDS011;10575;50.124;8.582;2023-02-28T13:38:56;11.93;;;6.57;;
20828;SDS011;10575;50.124;8.582;2023-02-28T13:51:50;11.88;;;6.57;;
20828;SDS011;10575;50.124;8.582;2023-02-28T13:57:52;14.15;;;6.43;;
20828;SDS011;10575;50.124;8.582;2023-02-28T14:03:26;11.57;;;6.55;;
20828;SDS011;10575;50.124;8.582;2023-02-28T14:06:19;11.63;;;6.57;;
20828;SDS011;10575;50.124;8.582;2023-02-28T14:11:46;11.52;;;6.57;;
20828;SDS011;10575;50.124;8.582;2023-02-28T14:16:59;12.30;;;6.47;;
20828;SDS011;10575;50.124;8.582;2023-02-28T14:19:26;15.93;;;6.88;;
20828;SDS011;10575;50.124;8.582;2023-02-28T14:27:53;14.80;;;7.43;;
20828;SDS011;10575;50.124;8.582;2023-02-28T14:33:44;14.30;;;6.88;;
20828;SDS011;10575;50.124;8.582;2023-02-28T14:36:37;13.38;;;7.35;;
20828;SDS011;10575;50.124;8.582;2023-02-28T14:39:12;12.65;;;6.60;;
20828;SDS011;10575;50.124;8.582;2023-02-28T14:41:41;12.35;;;7.35;;
20828;SDS011;10575;50.124;8.582;2023-02-28T14:44:15;18.08;;;7.25;;
20828;SDS011;10575;50.124;8.582;2023-02-28T14:46:58;11.65;;;7.05;;
20828;SDS011;10575;50.124;8.582;2023-02-28T14:49:38;14.30;;;7.32;;
20828;SDS011;10575;50.124;8.582;2023-02-28T14:52:23;13.40;;;6.65;;
20828;SDS011;10575;50.124;8.582;2023-02-28T14:54:52;13.10;;;7.53;;
20828;SDS011;10575;50.124;8.582;2023-02-28T14:57:29;11.35;;;7.22;;
20828;SDS011;10575;50.124;8.582;2023-02-28T15:00:13;16.02;;;7.97;;
20828;SDS011;10575;50.124;8.582;2023-02-28T15:05:56;11.13;;;7.13;;
20828;SDS011;10575;50.124;8.582;2023-02-28T15:08:24;11.23;;;6.40;;
20828;SDS011;10575;50.124;8.582;2023-02-28T15:13:26;13.55;;;7.40;;
20828;SDS011;10575;50.124;8.582;2023-02-28T15:16:22;17.02;;;7.35;;
20828;SDS011;10575;50.124;8.582;2023-02-28T15:18:57;11.90;;;7.30;;
20828;SDS011;10575;50.124;8.582;2023-02-28T15:21:26;10.32;;;6.68;;
20828;SDS011;10575;50.124;8.582;2023-02-28T15:23:56;13.48;;;6.70;;
20828;SDS011;10575;50.124;8.582;2023-02-28T15:26:32;12.63;;;6.80;;
20828;SDS011;10575;50.124;8.582;2023-02-28T15:29:00;12.15;;;6.38;;
20828;SDS011;10575;50.124;8.582;2023-02-28T15:31:34;11.98;;;6.57;;
20828;SDS011;10575;50.124;8.582;2023-02-28T15:34:06;11.15;;;6.93;;
20828;SDS011;10575;50.124;8.582;2023-02-28T15:36:41;12.15;;;6.97;;
20828;SDS011;10575;50.124;8.582;2023-02-28T15:39:21;13.30;;;7.43;;
20828;SDS011;10575;50.124;8.582;2023-02-28T15:41:48;16.75;;;7.65;;
20828;SDS011;10575;50.124;8.582;2023-02-28T15:44:15;12.93;;;6.93;;
20828;SDS011;10575;50.124;8.582;2023-02-28T15:47:05;11.73;;;6.88;;
20828;SDS011;10575;50.124;8.582;2023-02-28T15:49:36;11.10;;;6.70;;
20828;SDS011;10575;50.124;8.582;2023-02-28T15:52:05;11.57;;;6.70;;
20828;SDS011;10575;50.124;8.582;2023-02-28T15:54:34;12.20;;;6.72;;
20828;SDS011;10575;50.124;8.582;2023-02-28T15:57:22;13.45;;;7.57;;
20828;SDS011;10575;50.124;8.582;2023-02-28T15:59:52;13.70;;;7.63;;
20828;SDS011;10575;50.124;8.582;2023-02-28T16:02:22;13.30;;;7.18;;
20828;SDS011;10575;50.124;8.582;2023-02-28T16:07:33;12.88;;;7.50;;
20828;SDS011;10575;50.124;8.582;2023-02-28T16:10:00;12.55;;;7.35;;
20828;SDS011;10575;50.124;8.582;2023-02-28T16:12:27;15.88;;;7.18;;
20828;SDS011;10575;50.124;8.582;2023-02-28T16:14:55;11.85;;;6.35;;
20828;SDS011;10575;50.124;8.582;2023-02-28T16:17:23;12.00;;;7.10;;
20828;SDS011;10575;50.124;8.582;2023-02-28T16:19:51;11.80;;;6.78;;
20828;SDS011;10575;50.124;8.582;2023-02-28T16:22:16;14.07;;;6.95;;
20828;SDS011;10575;50.124;8.582;2023-02-28T16:24:42;12.90;;;7.72;;
20828;SDS011;10575;50.124;8.582;2023-02-28T16:27:15;14.02;;;7.40;;
20828;SDS011;10575;50.124;8.582;2023-02-28T16:29:43;13.95;;;7.28;;
20828;SDS011;10575;50.124;8.582;2023-02-28T16:32:10;13.02;;;7.82;;
20828;SDS011;10575;50.124;8.582;2023-02-28T16:34:39;15.80;;;7.70;;
20828;SDS011;10575;50.124;8.582;2023-02-28T16:37:09;14.32;;;7.10;;
20828;SDS011;10575;50.124;8.582;2023-02-28T16:39:39;14.48;;;7.72;;
20828;SDS011;10575;50.124;8.582;2023-02-28T16:42:14;14.38;;;7.57;;
20828;SDS011;10575;50.124;8.582;2023-02-28T16:44:48;16.30;;;8.05;;
20828;SDS011;10575;50.124;8.582;2023-02-28T16:47:14;13.95;;;7.57;;
20828;SDS011;10575;50.124;8.582;2023-02-28T16:49:40;15.98;;;7.10;;
20828;SDS011;10575;50.124;8.582;2023-02-28T16:52:08;15.70;;;7.60;;
20828;SDS011;10575;50.124;8.582;2023-02-28T16:54:34;14.25;;;7.63;;
20828;SDS011;10575;50.124;8.582;2023-02-28T16:57:00;14.43;;;7.63;;
20828;SDS011;10575;50.124;8.582;2023-02-28T16:59:26;12.90;;;7.25;;
20828;SDS011;10575;50.124;8.582;2023-02-28T17:01:54;16.27;;;7.53;;
20828;SDS011;10575;50.124;8.582;2023-02-28T17:04:22;14.73;;;7.22;;
20828;SDS011;10575;50.124;8.582;2023-02-28T17:06:48;13.85;;;7.00;;
20828;SDS011;10575;50.124;8.582;2023-02-28T17:09:18;14.45;;;7.50;;
20828;SDS011;10575;50.124;8.582;2023-02-28T17:11:45;14.18;;;8.18;;
20828;SDS011;10575;50.124;8.582;2023-02-28T17:14:11;15.50;;;7.65;;
20828;SDS011;10575;50.124;8.582;2023-02-28T17:16:37;13.35;;;7.53;;
20828;SDS011;10575;50.124;8.582;2023-02-28T17:19:13;13.07;;;7.70;;
20828;SDS011;10575;50.124;8.582;2023-02-28T17:21:43;13.25;;;7.65;;
20828;SDS011;10575;50.124;8.582;2023-02-28T17:24:09;15.02;;;7.90;;
20828;SDS011;10575;50.124;8.582;2023-02-28T17:26:37;15.68;;;7.20;;